Time;durP1;ratioP1;P1;durP2;ratioP2;P2;SDS_P1;SDS_P2;PMS_P1;PMS_P2;Temp;Humidity;BMP_temperature;BMP_pressure;BME280_temperature;BME280_humidity;BME280_pressure;Samples;Min_cycle;Max_cycle;Signal;HPM_P1;HPM_P2
2023/04/04 00:01:24;;;;;;;4.88;2.50;;;1.80;99.90;;;;;;5067427;28;20101;-83
2023/04/04 00:03:50;;;;;;;4.72;2.67;;;1.70;99.90;;;;;;5065695;28;20102;-82
2023/04/04 00:06:20;;;;;;;4.60;3.08;;;1.80;99.90;;;;;;5069099;28;20051;-83
2023/04/04 00:08:46;;;;;;;4.97;2.70;;;1.70;99.90;;;;;;5067247;28;20564;-83
2023/04/04 00:11:12;;;;;;;5.20;2.75;;;1.70;99.90;;;;;;5071316;28;20098;-83
2023/04/04 00:13:39;;;;;;;4.80;2.60;;;1.70;99.90;;;;;;5072571;28;20508;-83
2023/04/04 00:16:05;;;;;;;4.13;2.70;;;1.70;99.90;;;;;;5072284;28;20051;-83
2023/04/04 00:18:31;;;;;;;3.95;2.55;;;1.70;99.90;;;;;;5073620;28;20094;-83
2023/04/04 00:20:57;;;;;;;5.07;3.33;;;1.60;99.90;;;;;;5071871;28;20056;-83
2023/04/04 00:23:23;;;;;;;5.45;2.70;;;1.60;99.90;;;;;;5071094;28;20156;-83
2023/04/04 00:25:52;;;;;;;4.05;2.90;;;1.60;99.90;;;;;;5072298;28;20498;-84
2023/04/04 00:28:19;;;;;;;4.15;2.85;;;1.60;99.90;;;;;;5089870;28;20146;-83
2023/04/04 00:30:45;;;;;;;3.75;2.80;;;1.50;99.90;;;;;;5070776;28;20040;-83
2023/04/04 00:33:11;;;;;;;7.03;3.17;;;1.50;99.90;;;;;;5070899;28;20098;-84
2023/04/04 00:35:37;;;;;;;4.80;3.00;;;1.50;99.90;;;;;;5070032;28;20788;-84
2023/04/04 00:38:03;;;;;;;8.40;3.35;;;1.50;99.90;;;;;;5060773;28;20056;-84
2023/04/04 00:40:28;;;;;;;4.68;3.45;;;1.50;99.90;;;;;;5070618;28;20446;-83
2023/04/04 00:42:54;;;;;;;4.22;2.85;;;1.50;99.90;;;;;;5055749;28;20051;-83
2023/04/04 00:45:20;;;;;;;7.35;3.15;;;1.50;99.90;;;;;;5071495;28;20047;-84
2023/04/04 00:47:46;;;;;;;5.45;3.60;;;1.40;99.90;;;;;;5055391;28;20117;-83
2023/04/04 00:50:11;;;;;;;5.20;3.42;;;1.50;99.90;;;;;;5089309;28;20044;-83
2023/04/04 00:52:37;;;;;;;6.45;3.40;;;1.50;99.90;;;;;;5069392;28;20379;-83
2023/04/04 00:55:04;;;;;;;6.63;3.72;;;1.50;99.90;;;;;;5070250;28;20063;-83
2023/04/04 00:57:31;;;;;;;6.93;3.40;;;1.40;99.90;;;;;;5069502;28;22117;-83
2023/04/04 01:00:00;;;;;;;5.78;3.72;;;1.40;99.90;;;;;;5070114;28;20056;-83
2023/04/04 01:02:26;;;;;;;6.13;3.53;;;1.40;99.90;;;;;;5065098;28;20044;-83
2023/04/04 01:04:51;;;;;;;8.00;4.00;;;1.30;99.90;;;;;;5071051;28;20395;-83
2023/04/04 01:07:18;;;;;;;6.95;3.70;;;1.30;99.90;;;;;;5051502;28;20059;-83
2023/04/04 01:09:44;;;;;;;7.57;3.30;;;1.30;99.90;;;;;;5063609;28;20469;-83
2023/04/04 01:12:10;;;;;;;7.05;3.65;;;1.30;99.90;;;;;;5090004;28;20131;-84
2023/04/04 01:14:36;;;;;;;5.38;3.45;;;1.30;99.90;;;;;;5042799;28;20090;-83
2023/04/04 01:17:02;;;;;;;5.95;3.80;;;1.20;99.90;;;;;;5051136;28;20052;-84
2023/04/04 01:19:48;;;;;;;6.13;3.40;;;1.20;99.90;;;;;;5069960;28;20043;-83
2023/04/04 01:22:14;;;;;;;5.00;3.55;;;1.20;99.90;;;;;;5070792;28;20415;-83
2023/04/04 01:24:41;;;;;;;5.28;3.60;;;1.10;99.90;;;;;;5069735;28;20050;-83
2023/04/04 01:27:07;;;;;;;6.25;3.88;;;1.10;99.90;;;;;;5070511;28;20094;-84
2023/04/04 01:29:33;;;;;;;8.93;3.90;;;1.10;99.90;;;;;;5068754;28;20052;-83
2023/04/04 01:32:15;;;;;;;5.65;3.60;;;1.00;99.90;;;;;;5070860;28;20075;-84
2023/04/04 01:35:04;;;;;;;6.90;3.55;;;1.00;99.90;;;;;;5039647;28;20039;-83
2023/04/04 01:37:58;;;;;;;7.30;3.70;;;1.00;99.90;;;;;;5054105;28;20155;-83
2023/04/04 01:40:27;;;;;;;5.97;3.50;;;0.90;99.90;;;;;;5021943;28;20487;-83
2023/04/04 01:42:54;;;;;;;4.93;3.40;;;0.80;99.90;;;;;;5070771;28;20206;-83
2023/04/04 01:45:23;;;;;;;5.53;4.18;;;0.80;99.90;;;;;;5070188;28;20056;-83
2023/04/04 01:47:48;;;;;;;5.70;3.95;;;0.70;99.90;;;;;;5053947;28;20036;-84
2023/04/04 01:50:15;;;;;;;6.72;3.78;;;0.70;99.90;;;;;;5070955;28;20043;-83
2023/04/04 01:52:41;;;;;;;6.10;4.20;;;0.70;99.90;;;;;;5080646;28;20548;-83
2023/04/04 01:55:07;;;;;;;7.80;4.40;;;0.60;99.90;;;;;;5080217;28;20040;-84
2023/04/04 01:57:33;;;;;;;6.97;3.80;;;0.60;99.90;;;;;;5088598;28;20048;-83
2023/04/04 01:59:58;;;;;;;6.30;3.95;;;0.60;99.90;;;;;;5053157;28;20071;-83
2023/04/04 02:02:24;;;;;;;6.65;4.18;;;0.50;99.90;;;;;;5053008;28;20143;-83
2023/04/04 02:04:54;;;;;;;7.05;3.80;;;0.50;99.90;;;;;;5068356;28;20052;-84
2023/04/04 02:07:19;;;;;;;6.97;3.97;;;0.50;99.90;;;;;;5053702;28;20054;-83
2023/04/04 02:09:45;;;;;;;4.75;3.65;;;0.40;99.90;;;;;;5069962;28;20047;-83
2023/04/04 02:12:11;;;;;;;5.15;3.70;;;0.40;99.90;;;;;;5071590;28;20044;-83
2023/04/04 02:14:37;;;;;;;6.07;3.80;;;0.40;99.90;;;;;;5068881;28;20052;-83
2023/04/04 02:17:02;;;;;;;6.78;3.40;;;0.40;99.90;;;;;;5054206;28;20044;-83
2023/04/04 02:19:28;;;;;;;6.88;4.22;;;0.30;99.90;;;;;;5069549;28;20416;-83
2023/04/04 02:21:55;;;;;;;6.32;3.72;;;0.30;99.90;;;;;;5059810;28;20059;-83
2023/04/04 02:24:21;;;;;;;7.00;4.22;;;0.30;99.90;;;;;;5069604;28;20087;-84
2023/04/04 02:26:47;;;;;;;7.00;3.90;;;0.20;99.90;;;;;;5069466;28;20083;-83
2023/04/04 02:29:12;;;;;;;7.03;4.00;;;0.20;99.90;;;;;;5069952;28;20866;-83
2023/04/04 02:31:38;;;;;;;6.78;4.40;;;0.10;99.90;;;;;;5052748;28;20056;-84
2023/04/04 02:34:04;;;;;;;6.07;4.35;;;0.10;99.90;;;;;;5069352;28;20153;-83
2023/04/04 02:36:30;;;;;;;8.35;4.30;;;0.10;99.90;;;;;;5068639;28;20063;-84
2023/04/04 02:38:55;;;;;;;6.55;4.07;;;0.10;99.90;;;;;;5069407;28;20146;-84
2023/04/04 02:41:22;;;;;;;7.13;4.22;;;0.10;99.90;;;;;;5067871;28;20040;-84
2023/04/04 02:43:47;;;;;;;10.55;4.57;;;0.10;99.90;;;;;;5087067;28;20067;-84
2023/04/04 02:46:15;;;;;;;6.28;3.97;;;0.10;99.90;;;;;;5091562;28;20070;-84
2023/04/04 02:48:41;;;;;;;6.93;4.25;;;0.10;99.90;;;;;;5081296;28;20080;-83
2023/04/04 02:51:07;;;;;;;9.70;4.07;;;0.10;99.90;;;;;;5059230;28;20067;-84
2023/04/04 02:53:32;;;;;;;6.10;3.95;;;0.00;99.90;;;;;;5062580;28;20047;-83
2023/04/04 02:55:58;;;;;;;9.18;4.93;;;0.00;99.90;;;;;;5066525;28;20051;-83
2023/04/04 02:58:23;;;;;;;7.70;4.45;;;-0.10;99.90;;;;;;5052713;28;20059;-83
2023/04/04 03:00:55;;;;;;;9.20;4.72;;;0.00;99.90;;;;;;5069101;28;20036;-83
2023/04/04 03:03:21;;;;;;;5.75;3.80;;;-0.10;99.90;;;;;;5065467;28;20133;-83
2023/04/04 03:05:48;;;;;;;9.73;4.25;;;0.00;99.90;;;;;;5058574;28;20499;-83
2023/04/04 03:08:14;;;;;;;8.25;3.97;;;-0.10;99.90;;;;;;5082682;28;20393;-83
2023/04/04 03:10:40;;;;;;;8.85;4.53;;;0.20;99.90;;;;;;5068919;28;20043;-84
2023/04/04 03:13:06;;;;;;;6.93;3.83;;;-0.10;99.90;;;;;;5069183;28;20344;-83
2023/04/04 03:15:32;;;;;;;8.07;4.35;;;-0.10;99.90;;;;;;5085905;28;20036;-83
2023/04/04 03:17:58;;;;;;;5.22;3.80;;;-0.20;99.90;;;;;;5066127;28;20078;-83
2023/04/04 03:20:25;;;;;;;6.25;3.95;;;-0.20;99.90;;;;;;5049771;28;20450;-83
2023/04/04 03:22:51;;;;;;;7.07;4.50;;;-0.20;99.90;;;;;;5087368;28;20063;-83
2023/04/04 03:25:16;;;;;;;7.43;3.78;;;-0.20;99.90;;;;;;5087237;28;20040;-83
2023/04/04 03:27:42;;;;;;;10.07;4.15;;;-0.20;99.90;;;;;;5087196;28;20805;-84
2023/04/04 03:30:09;;;;;;;6.07;4.35;;;-0.20;99.90;;;;;;5053440;28;20801;-83
2023/04/04 03:32:38;;;;;;;5.57;4.43;;;-0.20;99.90;;;;;;5085700;28;20051;-84
2023/04/04 03:35:07;;;;;;;5.47;4.03;;;-0.20;99.90;;;;;;5052483;28;20036;-84
2023/04/04 03:37:34;;;;;;;5.82;4.13;;;-0.30;99.90;;;;;;5065515;28;20439;-83
2023/04/04 03:40:00;;;;;;;5.63;3.85;;;-0.30;99.90;;;;;;5066234;28;20068;-83
2023/04/04 03:42:28;;;;;;;5.18;3.78;;;-0.30;99.90;;;;;;5066556;28;20044;-83
2023/04/04 03:44:54;;;;;;;5.32;3.97;;;-0.30;99.90;;;;;;5068731;28;20063;-83
2023/04/04 03:47:19;;;;;;;6.72;4.05;;;-0.40;99.90;;;;;;5070310;28;20747;-83
2023/04/04 03:49:45;;;;;;;4.57;3.60;;;-0.40;99.90;;;;;;5068985;28;20041;-83
2023/04/04 03:52:11;;;;;;;7.10;4.38;;;-0.40;99.90;;;;;;5071273;28;20040;-84
2023/04/04 03:54:38;;;;;;;7.65;4.72;;;-0.50;99.90;;;;;;5070591;28;20067;-84
2023/04/04 03:57:04;;;;;;;5.68;4.07;;;-0.50;99.90;;;;;;5070849;28;20052;-84
2023/04/04 03:59:29;;;;;;;10.02;4.03;;;-0.50;99.90;;;;;;5054719;28;20055;-84
2023/04/04 04:01:55;;;;;;;5.63;4.25;;;-0.50;99.90;;;;;;5068306;28;20465;-84
2023/04/04 04:04:20;;;;;;;8.43;4.65;;;-0.50;99.90;;;;;;5070484;28;20132;-84
2023/04/04 04:06:47;;;;;;;6.93;4.40;;;-0.50;99.90;;;;;;5067579;28;20060;-84
2023/04/04 04:09:13;;;;;;;7.05;4.03;;;-0.50;99.90;;;;;;5083889;28;20510;-84
2023/04/04 04:11:39;;;;;;;4.65;3.90;;;-0.50;99.90;;;;;;5069092;28;20123;-84
2023/04/04 04:14:04;;;;;;;6.32;3.65;;;-0.50;99.90;;;;;;5068570;28;20148;-84
2023/04/04 04:16:31;;;;;;;7.63;3.53;;;-0.50;99.90;;;;;;5068303;28;20059;-84
2023/04/04 04:18:57;;;;;;;5.82;3.67;;;-0.50;99.90;;;;;;5052913;28;20464;-84
2023/04/04 04:21:23;;;;;;;5.88;4.00;;;-0.50;99.90;;;;;;5058968;28;20116;-84
2023/04/04 04:23:48;;;;;;;7.20;4.20;;;-0.50;99.90;;;;;;5064017;28;20044;-84
2023/04/04 04:26:14;;;;;;;8.05;3.97;;;-0.40;99.90;;;;;;5068072;28;20055;-84
2023/04/04 04:28:40;;;;;;;6.88;4.22;;;-0.50;99.90;;;;;;5068833;28;20155;-84
2023/04/04 04:31:06;;;;;;;7.05;4.30;;;-0.50;99.90;;;;;;5067038;28;20124;-84
2023/04/04 04:33:32;;;;;;;7.13;3.80;;;-0.40;99.90;;;;;;5067869;28;20060;-84
2023/04/04 04:36:00;;;;;;;5.78;3.88;;;-0.40;99.90;;;;;;5051736;28;20057;-84
2023/04/04 04:38:26;;;;;;;6.63;3.83;;;-0.50;99.90;;;;;;5049147;28;20067;-83
2023/04/04 04:40:51;;;;;;;8.15;4.50;;;-0.50;99.90;;;;;;5067737;28;20045;-84
2023/04/04 04:43:17;;;;;;;7.55;3.72;;;-0.50;99.90;;;;;;5066825;28;20525;-84
2023/04/04 04:45:43;;;;;;;6.00;3.88;;;-0.50;99.90;;;;;;5067730;28;20079;-84
2023/04/04 04:48:08;;;;;;;7.78;4.32;;;-0.50;99.90;;;;;;5062187;28;20121;-84
2023/04/04 04:50:34;;;;;;;6.38;4.35;;;-0.50;99.90;;;;;;5053285;28;20144;-84
2023/04/04 04:53:00;;;;;;;5.05;4.05;;;-0.50;99.90;;;;;;5065701;28;20122;-84
2023/04/04 04:55:26;;;;;;;10.02;4.57;;;-0.50;99.90;;;;;;5051356;28;20575;-84
2023/04/04 04:57:52;;;;;;;6.05;3.72;;;-0.50;99.90;;;;;;5067898;28;20070;-84
2023/04/04 05:00:18;;;;;;;4.65;3.22;;;-0.50;99.90;;;;;;5068778;28;20118;-84
2023/04/04 05:02:44;;;;;;;5.72;3.72;;;-0.50;99.90;;;;;;5050079;28;20487;-84
2023/04/04 05:05:09;;;;;;;5.90;4.28;;;-0.50;99.90;;;;;;5067181;28;20051;-84
2023/04/04 05:07:38;;;;;;;6.53;3.97;;;-0.60;99.90;;;;;;5049659;28;20120;-83
2023/04/04 05:10:04;;;;;;;7.32;3.50;;;-0.60;99.90;;;;;;5069308;28;20131;-84
2023/04/04 05:12:30;;;;;;;6.65;3.83;;;-0.60;99.90;;;;;;5067758;28;20366;-84
2023/04/04 05:14:56;;;;;;;6.22;4.03;;;-0.60;99.90;;;;;;5068738;28;20119;-84
2023/04/04 05:17:22;;;;;;;7.10;3.70;;;-0.50;99.90;;;;;;5067905;28;20119;-83
2023/04/04 05:19:47;;;;;;;5.45;3.63;;;-0.50;99.90;;;;;;5066991;28;20105;-84
2023/04/04 05:22:14;;;;;;;5.93;4.00;;;-0.50;99.90;;;;;;5066159;28;20052;-84
2023/04/04 05:24:41;;;;;;;7.00;4.00;;;-0.50;99.90;;;;;;5069665;28;20043;-84
2023/04/04 05:27:07;;;;;;;9.82;3.83;;;-0.50;99.90;;;;;;5066473;28;20130;-84
2023/04/04 05:29:33;;;;;;;6.15;3.63;;;-0.40;99.90;;;;;;5048019;28;20048;-84
2023/04/04 05:31:58;;;;;;;6.55;4.10;;;-0.40;99.90;;;;;;5058745;28;20044;-83
2023/04/04 05:34:24;;;;;;;5.43;3.58;;;-0.40;99.90;;;;;;5066479;28;20076;-83
2023/04/04 05:36:49;;;;;;;7.53;4.78;;;-0.30;99.90;;;;;;5067255;28;20075;-84
2023/04/04 05:39:15;;;;;;;8.25;4.18;;;-0.30;99.90;;;;;;5067336;28;20076;-84
2023/04/04 05:41:41;;;;;;;6.90;4.60;;;-0.20;99.90;;;;;;5068008;28;20044;-85
2023/04/04 05:44:07;;;;;;;5.22;3.40;;;-0.20;99.90;;;;;;5064231;28;20440;-84
2023/04/04 05:46:32;;;;;;;7.22;3.78;;;-0.10;99.90;;;;;;5065074;28;20045;-84
2023/04/04 05:48:58;;;;;;;7.03;4.13;;;0.00;99.90;;;;;;5058925;28;20044;-84
2023/04/04 05:51:23;;;;;;;9.80;4.43;;;0.00;99.90;;;;;;5051522;28;20045;-84
2023/04/04 05:53:49;;;;;;;7.28;3.95;;;0.10;99.90;;;;;;5050238;28;20044;-84
2023/04/04 05:56:15;;;;;;;5.25;3.55;;;0.20;99.90;;;;;;5066099;28;20044;-83
2023/04/04 05:58:41;;;;;;;9.05;4.10;;;0.30;99.90;;;;;;5049548;28;20041;-82
2023/04/04 06:01:07;;;;;;;5.63;4.05;;;0.30;99.90;;;;;;5051062;28;20048;-83
2023/04/04 06:03:33;;;;;;;5.82;3.13;;;0.40;99.90;;;;;;5067065;28;20118;-83
2023/04/04 06:06:03;;;;;;;5.25;3.58;;;0.70;99.90;;;;;;5067267;28;20075;-82
2023/04/04 06:08:30;;;;;;;4.40;3.10;;;0.60;99.90;;;;;;5066420;28;20040;-84
2023/04/04 06:10:55;;;;;;;4.82;3.13;;;0.60;99.90;;;;;;5066362;28;20477;-84
2023/04/04 06:13:21;;;;;;;5.53;2.90;;;0.70;99.90;;;;;;5050532;28;20123;-84
2023/04/04 06:15:46;;;;;;;5.93;3.15;;;0.80;99.90;;;;;;5050850;28;20138;-84
2023/04/04 06:18:12;;;;;;;5.50;2.90;;;0.80;99.90;;;;;;5050415;28;20078;-84
2023/04/04 06:20:38;;;;;;;4.82;2.92;;;0.80;99.90;;;;;;5068049;28;20441;-83
2023/04/04 06:23:03;;;;;;;5.07;2.83;;;0.80;99.90;;;;;;5062719;28;20079;-84
2023/04/04 06:25:30;;;;;;;4.57;3.03;;;0.80;99.90;;;;;;5069820;28;20102;-84
2023/04/04 06:27:56;;;;;;;4.55;2.95;;;0.80;99.90;;;;;;5067278;28;20382;-84
2023/04/04 06:30:22;;;;;;;5.93;2.60;;;0.90;99.90;;;;;;5069001;28;20406;-84
2023/04/04 06:32:48;;;;;;;5.35;3.10;;;0.90;99.90;;;;;;5066577;28;20052;-83
2023/04/04 06:35:14;;;;;;;5.70;2.92;;;1.00;99.90;;;;;;5053422;28;20079;-83
2023/04/04 06:37:39;;;;;;;6.15;2.95;;;1.00;99.90;;;;;;5029944;28;20079;-83
2023/04/04 06:40:06;;;;;;;5.93;3.25;;;1.00;99.90;;;;;;5046561;28;20068;-83
2023/04/04 06:42:32;;;;;;;5.28;3.17;;;1.00;99.90;;;;;;5066514;28;20051;-83
2023/04/04 06:44:57;;;;;;;5.55;3.05;;;1.10;99.90;;;;;;5066634;28;20392;-83
2023/04/04 06:47:23;;;;;;;4.65;2.85;;;1.10;99.90;;;;;;5065883;28;20102;-82
2023/04/04 06:49:48;;;;;;;3.38;2.72;;;1.20;99.90;;;;;;5064975;28;20064;-83
2023/04/04 06:52:14;;;;;;;4.25;3.33;;;1.20;99.90;;;;;;5067348;28;20352;-83
2023/04/04 06:54:40;;;;;;;7.82;3.30;;;1.30;99.90;;;;;;5065734;28;20428;-84
2023/04/04 06:57:05;;;;;;;3.67;2.55;;;1.40;99.90;;;;;;5065035;28;20139;-82
2023/04/04 06:59:31;;;;;;;4.70;2.90;;;1.50;99.90;;;;;;5065573;28;20076;-82
2023/04/04 07:01:57;;;;;;;4.50;2.55;;;1.60;99.90;;;;;;5067045;28;20494;-84
2023/04/04 07:04:22;;;;;;;3.67;2.35;;;1.70;99.90;;;;;;5065200;28;20097;-84
2023/04/04 07:06:48;;;;;;;4.70;2.58;;;1.60;99.90;;;;;;5066756;28;20483;-83
2023/04/04 07:09:13;;;;;;;6.20;3.03;;;1.90;99.90;;;;;;5065890;28;20040;-83
2023/04/04 07:11:39;;;;;;;3.72;2.17;;;2.00;99.90;;;;;;5066394;28;20159;-83
2023/04/04 07:14:05;;;;;;;7.38;2.65;;;2.10;99.90;;;;;;5065868;28;20530;-83
2023/04/04 07:16:30;;;;;;;5.20;2.75;;;2.20;99.90;;;;;;5066776;28;20048;-84
2023/04/04 07:18:56;;;;;;;5.13;2.40;;;2.30;99.90;;;;;;5065962;28;20094;-84
2023/04/04 07:21:22;;;;;;;5.28;2.20;;;2.40;99.90;;;;;;5066880;28;20082;-83
2023/04/04 07:23:49;;;;;;;4.40;2.22;;;2.50;99.90;;;;;;5066191;28;20079;-83
2023/04/04 07:26:15;;;;;;;5.63;2.70;;;2.70;99.90;;;;;;5049900;28;20049;-83
2023/04/04 07:28:40;;;;;;;4.28;3.03;;;2.70;99.90;;;;;;5066629;28;20050;-83
2023/04/04 07:31:06;;;;;;;5.10;3.10;;;2.80;99.90;;;;;;5065568;28;20041;-83
2023/04/04 07:33:32;;;;;;;6.90;2.10;;;2.90;99.90;;;;;;5065488;28;20036;-84
2023/04/04 07:36:00;;;;;;;4.25;2.30;;;3.00;99.90;;;;;;5066826;28;20053;-84
2023/04/04 07:38:26;;;;;;;4.50;1.92;;;3.20;99.90;;;;;;5065798;28;20398;-84
2023/04/04 07:40:52;;;;;;;3.83;2.10;;;3.40;99.90;;;;;;5065848;28;20040;-83
2023/04/04 07:43:17;;;;;;;5.53;2.28;;;3.50;99.90;;;;;;5066465;28;20372;-84
2023/04/04 07:45:43;;;;;;;4.65;2.22;;;3.70;99.90;;;;;;5065820;28;20052;-83
2023/04/04 07:48:08;;;;;;;3.53;1.80;;;3.80;99.90;;;;;;5064658;28;20733;-83
2023/04/04 07:50:34;;;;;;;3.60;2.05;;;3.90;99.90;;;;;;5048817;28;20044;-83
2023/04/04 07:53:00;;;;;;;3.33;1.70;;;4.00;99.90;;;;;;5065579;28;20040;-83
2023/04/04 07:55:26;;;;;;;5.38;1.90;;;4.10;99.90;;;;;;5065589;28;20052;-84
2023/04/04 07:57:52;;;;;;;3.75;1.80;;;4.10;99.90;;;;;;5065314;28;20067;-80
2023/04/04 08:00:20;;;;;;;4.75;1.63;;;4.30;99.90;;;;;;5066097;28;20811;-81
2023/04/04 08:02:51;;;;;;;4.07;2.10;;;4.40;99.90;;;;;;5066694;28;20557;-81
2023/04/04 08:05:16;;;;;;;4.70;2.20;;;4.50;99.90;;;;;;5065505;28;20080;-82
2023/04/04 08:07:42;;;;;;;2.22;1.75;;;4.60;99.90;;;;;;5064041;28;20079;-82
2023/04/04 08:10:08;;;;;;;2.88;1.67;;;4.70;99.90;;;;;;5066098;28;20489;-81
2023/04/04 08:12:34;;;;;;;3.42;1.85;;;4.80;99.90;;;;;;5065961;28;20032;-81
2023/04/04 08:15:00;;;;;;;4.82;2.08;;;4.90;99.90;;;;;;5064070;28;20056;-81
2023/04/04 08:17:27;;;;;;;4.07;2.05;;;5.00;99.90;;;;;;5063046;28;20048;-81
2023/04/04 08:19:52;;;;;;;4.28;2.17;;;5.40;99.90;;;;;;5062253;28;20098;-81
2023/04/04 08:22:18;;;;;;;5.07;1.88;;;5.10;99.90;;;;;;5067908;28;20040;-81
2023/04/04 08:24:45;;;;;;;3.13;2.00;;;5.10;99.90;;;;;;5064636;28;20151;-81
2023/04/04 08:27:11;;;;;;;5.05;1.92;;;5.20;99.90;;;;;;5066213;28;20040;-81
2023/04/04 08:29:37;;;;;;;3.97;2.03;;;5.30;99.90;;;;;;5063998;28;20659;-82
2023/04/04 08:32:02;;;;;;;3.92;2.38;;;5.40;99.50;;;;;;5068941;28;20041;-81
2023/04/04 08:34:28;;;;;;;2.95;2.28;;;5.40;99.70;;;;;;5069162;28;20049;-81
2023/04/04 08:36:54;;;;;;;4.10;2.15;;;5.60;99.50;;;;;;5076724;28;20055;-80
2023/04/04 08:39:20;;;;;;;4.53;1.95;;;5.70;98.40;;;;;;5089833;28;20131;-81
2023/04/04 08:41:46;;;;;;;3.70;2.15;;;5.80;98.70;;;;;;5072922;28;20456;-81
2023/04/04 08:44:20;;;;;;;2.45;1.83;;;6.00;98.90;;;;;;5090224;28;20036;-81
2023/04/04 08:46:48;;;;;;;4.22;2.17;;;6.10;97.80;;;;;;5081344;28;20119;-80
2023/04/04 08:49:15;;;;;;;2.40;2.08;;;6.20;96.90;;;;;;5090927;28;20048;-80
2023/04/04 08:51:43;;;;;;;4.95;2.55;;;6.20;96.70;;;;;;5089959;28;20042;-80
2023/04/04 08:54:10;;;;;;;3.25;2.47;;;6.20;95.90;;;;;;5087671;28;20466;-80
2023/04/04 08:56:36;;;;;;;4.43;2.42;;;6.40;96.30;;;;;;5090899;28;20418;-80
2023/04/04 08:59:02;;;;;;;4.00;2.55;;;6.40;95.90;;;;;;5072763;28;20044;-80
2023/04/04 09:01:28;;;;;;;2.63;2.40;;;6.40;94.90;;;;;;5089787;28;20086;-81
2023/04/04 09:03:56;;;;;;;6.28;2.53;;;6.50;95.40;;;;;;5071747;28;20056;-80
2023/04/04 09:06:23;;;;;;;3.65;2.20;;;6.30;94.30;;;;;;5091129;28;20413;-83
2023/04/04 09:08:52;;;;;;;2.60;2.25;;;6.60;95.20;;;;;;5072054;28;20492;-81
2023/04/04 09:11:20;;;;;;;3.22;2.25;;;6.70;95.40;;;;;;5071320;28;20808;-80
2023/04/04 09:13:49;;;;;;;4.10;2.47;;;6.90;95.80;;;;;;5055555;28;20043;-80
2023/04/04 09:16:16;;;;;;;5.68;2.63;;;7.00;95.20;;;;;;5090625;28;20040;-80
2023/04/04 09:18:42;;;;;;;3.22;2.40;;;7.30;94.90;;;;;;5088155;28;20481;-80
2023/04/04 09:21:08;;;;;;;6.20;2.53;;;7.20;94.20;;;;;;5089086;28;20050;-81
2023/04/04 09:23:34;;;;;;;3.65;2.17;;;7.20;93.70;;;;;;5071517;28;20056;-80
2023/04/04 09:26:00;;;;;;;3.65;2.10;;;7.20;94.30;;;;;;5071519;28;20182;-80
2023/04/04 09:28:27;;;;;;;4.45;2.10;;;7.30;93.70;;;;;;5070685;28;20101;-80
2023/04/04 09:30:52;;;;;;;5.47;2.67;;;7.30;93.50;;;;;;5072149;28;20472;-81
2023/04/04 09:33:20;;;;;;;4.00;2.28;;;7.30;93.10;;;;;;5069367;28;20044;-81
2023/04/04 09:35:54;;;;;;;5.88;2.40;;;7.30;92.90;;;;;;5070041;28;20048;-82
2023/04/04 09:38:22;;;;;;;5.00;2.42;;;7.30;92.30;;;;;;5071120;28;20063;-81
2023/04/04 09:40:48;;;;;;;3.47;2.10;;;7.40;91.80;;;;;;5072011;28;20040;-82
2023/04/04 09:43:14;;;;;;;4.78;2.33;;;7.50;91.40;;;;;;5087372;28;20054;-81
2023/04/04 09:45:43;;;;;;;3.17;1.95;;;7.60;92.00;;;;;;5070507;28;20048;-80
2023/04/04 09:48:09;;;;;;;3.97;1.90;;;7.80;91.80;;;;;;5071568;28;20058;-81
2023/04/04 09:50:36;;;;;;;4.13;2.30;;;7.90;90.50;;;;;;5069166;28;20036;-81
2023/04/04 09:53:02;;;;;;;4.53;2.15;;;7.80;87.00;;;;;;5088755;28;20498;-81
2023/04/04 09:55:36;;;;;;;3.05;2.35;;;7.80;86.40;;;;;;5088094;28;20046;-80
2023/04/04 09:58:16;;;;;;;4.18;2.30;;;7.80;84.70;;;;;;5086333;28;20039;-80
2023/04/04 10:00:47;;;;;;;2.72;1.98;;;7.90;83.50;;;;;;5106844;28;20051;-81
2023/04/04 10:03:16;;;;;;;2.80;2.00;;;8.00;86.00;;;;;;5088697;28;20086;-81
2023/04/04 10:05:46;;;;;;;4.40;2.38;;;8.10;83.90;;;;;;5085676;28;20154;-81
2023/04/04 10:08:14;;;;;;;4.22;1.90;;;8.10;79.60;;;;;;5089011;28;20044;-81
2023/04/04 10:10:55;;;;;;;3.45;2.13;;;8.00;81.20;;;;;;5082706;28;20052;-81
2023/04/04 10:13:31;;;;;;;3.50;2.33;;;8.20;76.40;;;;;;5068104;28;20048;-81
2023/04/04 10:15:58;;;;;;;2.95;2.17;;;8.10;80.30;;;;;;5053595;28;20379;-81
2023/04/04 10:18:26;;;;;;;3.58;2.30;;;8.70;81.60;;;;;;5088297;28;20077;-80
2023/04/04 10:20:56;;;;;;;3.05;2.20;;;8.20;79.60;;;;;;5070083;28;20486;-80
2023/04/04 10:23:25;;;;;;;8.40;2.25;;;8.20;77.10;;;;;;5051788;28;20083;-81
2023/04/04 10:25:55;;;;;;;4.80;2.50;;;8.20;79.20;;;;;;5054676;28;20052;-81
2023/04/04 10:28:22;;;;;;;5.25;2.55;;;8.30;80.50;;;;;;5088364;28;20044;-81
2023/04/04 10:31:01;;;;;;;4.65;2.58;;;8.40;81.30;;;;;;5070602;28;20044;-80
2023/04/04 10:33:45;;;;;;;5.22;2.72;;;8.50;76.90;;;;;;5088501;28;20052;-80
2023/04/04 10:36:12;;;;;;;5.07;2.28;;;8.50;76.20;;;;;;5085877;28;20036;-80
2023/04/04 10:38:50;;;;;;;3.03;2.40;;;8.60;78.80;;;;;;5067790;28;20048;-80
2023/04/04 10:41:18;;;;;;;5.70;2.53;;;8.70;73.90;;;;;;5088891;28;20048;-81
2023/04/04 10:43:46;;;;;;;4.30;2.58;;;8.80;74.90;;;;;;5070270;28;20158;-81
2023/04/04 10:46:16;;;;;;;8.10;2.67;;;8.80;74.20;;;;;;5088879;28;20089;-81
2023/04/04 10:48:43;;;;;;;2.63;1.75;;;8.80;71.10;;;;;;5082251;28;20085;-81
2023/04/04 10:51:10;;;;;;;3.17;1.75;;;8.90;71.70;;;;;;5064199;28;20051;-81
2023/04/04 10:53:38;;;;;;;2.95;1.92;;;8.90;71.00;;;;;;5042436;28;20036;-82
2023/04/04 10:56:04;;;;;;;2.75;1.80;;;9.00;70.70;;;;;;5086718;28;20070;-82
2023/04/04 10:58:30;;;;;;;3.67;2.10;;;9.10;69.50;;;;;;5068770;28;20915;-82
2023/04/04 11:00:58;;;;;;;3.13;2.00;;;9.30;70.50;;;;;;5053536;28;20044;-79
2023/04/04 11:03:24;;;;;;;3.95;2.10;;;9.50;69.50;;;;;;5086921;28;21113;-80
2023/04/04 11:05:50;;;;;;;3.15;2.00;;;9.60;65.20;;;;;;5068354;28;20051;-81
2023/04/04 11:08:25;;;;;;;2.50;2.00;;;9.60;65.90;;;;;;5069982;28;20051;-80
2023/04/04 11:10:52;;;;;;;2.88;1.67;;;9.60;62.50;;;;;;5059772;28;20128;-81
2023/04/04 11:13:34;;;;;;;5.85;2.15;;;9.80;66.00;;;;;;5049755;28;20060;-81
2023/04/04 11:16:14;;;;;;;4.55;2.22;;;9.80;64.00;;;;;;5054626;28;20405;-82
2023/04/04 11:18:44;;;;;;;4.40;2.20;;;9.90;60.70;;;;;;5068129;28;20048;-82
2023/04/04 11:21:23;;;;;;;2.17;1.60;;;10.00;63.20;;;;;;5070183;28;20052;-82
2023/04/04 11:24:03;;;;;;;4.03;2.70;;;10.00;62.50;;;;;;5088370;28;20514;-81
2023/04/04 11:26:29;;;;;;;4.13;2.10;;;10.00;62.30;;;;;;5053137;28;20052;-81
2023/04/04 11:28:59;;;;;;;3.42;1.83;;;9.80;60.20;;;;;;5069337;28;20056;-82
2023/04/04 11:31:39;;;;;;;2.47;1.60;;;9.90;60.90;;;;;;5069840;28;20131;-82
2023/04/04 11:34:09;;;;;;;5.70;2.00;;;9.90;60.20;;;;;;5068994;28;20055;-81
2023/04/04 11:36:34;;;;;;;3.58;2.03;;;9.80;60.30;;;;;;5064918;28;20559;-82
2023/04/04 11:39:26;;;;;;;4.20;2.28;;;9.80;60.90;;;;;;5047632;28;20364;-81
2023/04/04 11:42:07;;;;;;;4.75;2.10;;;10.00;60.60;;;;;;5065247;28;20498;-81
2023/04/04 11:44:39;;;;;;;2.60;1.88;;;10.10;60.80;;;;;;5047574;28;20452;-82
2023/04/04 11:47:04;;;;;;;2.53;1.90;;;10.20;61.60;;;;;;5064339;28;20109;-82
2023/04/04 11:49:35;;;;;;;3.95;2.67;;;10.00;59.00;;;;;;5065569;28;20053;-82
2023/04/04 11:52:10;;;;;;;3.10;2.17;;;10.00;58.80;;;;;;5066574;28;20465;-82
2023/04/04 11:54:37;;;;;;;2.85;2.13;;;10.00;58.70;;;;;;5048955;28;20051;-82
2023/04/04 11:57:10;;;;;;;3.67;2.10;;;10.10;60.40;;;;;;5066254;28;20637;-83
2023/04/04 11:59:39;;;;;;;3.50;2.08;;;10.20;59.10;;;;;;5066679;28;20426;-82
2023/04/04 12:02:06;;;;;;;3.50;1.90;;;10.30;59.60;;;;;;5067212;28;20045;-82
2023/04/04 12:04:33;;;;;;;7.63;2.05;;;10.40;58.50;;;;;;5065946;28;20432;-82
2023/04/04 12:06:59;;;;;;;4.88;2.00;;;10.20;56.70;;;;;;5068895;28;20487;-82
2023/04/04 12:09:25;;;;;;;3.50;1.98;;;10.20;58.50;;;;;;5069625;28;20045;-82
2023/04/04 12:11:51;;;;;;;2.25;1.80;;;10.10;57.00;;;;;;5069966;28;20053;-82
2023/04/04 12:14:21;;;;;;;2.80;1.75;;;10.20;58.00;;;;;;5052922;28;20056;-82
2023/04/04 12:16:49;;;;;;;2.65;1.88;;;10.20;56.90;;;;;;5069418;28;20471;-82
2023/04/04 12:19:15;;;;;;;3.45;2.17;;;10.20;56.80;;;;;;5070234;28;20044;-82
2023/04/04 12:21:40;;;;;;;3.72;2.10;;;10.20;56.90;;;;;;5069428;28;20063;-82
2023/04/04 12:24:09;;;;;;;3.08;2.03;;;10.20;57.10;;;;;;5069125;28;20045;-82
2023/04/04 12:26:38;;;;;;;5.60;2.65;;;10.20;56.20;;;;;;5069837;28;20084;-82
2023/04/04 12:29:04;;;;;;;4.10;2.22;;;10.20;57.10;;;;;;5069623;28;20053;-83
2023/04/04 12:31:31;;;;;;;2.58;2.05;;;10.20;57.50;;;;;;5052708;28;20048;-82
2023/04/04 12:33:58;;;;;;;2.97;1.88;;;10.40;57.80;;;;;;5069544;28;20187;-82
2023/04/04 12:36:25;;;;;;;4.85;2.70;;;10.50;57.10;;;;;;5070374;28;20127;-82
2023/04/04 12:39:04;;;;;;;3.25;2.00;;;10.50;57.10;;;;;;5071944;28;20425;-82
2023/04/04 12:41:32;;;;;;;2.50;1.80;;;10.50;56.20;;;;;;5072098;28;20059;-82
2023/04/04 12:44:02;;;;;;;4.13;2.30;;;10.40;56.10;;;;;;5072947;28;20055;-82
2023/04/04 12:46:34;;;;;;;4.53;2.20;;;10.40;56.30;;;;;;5072619;28;20052;-83
2023/04/04 12:49:00;;;;;;;2.65;2.20;;;10.60;56.40;;;;;;5089898;28;20073;-82
2023/04/04 12:51:34;;;;;;;2.63;2.13;;;10.70;55.40;;;;;;5072118;28;20158;-82
2023/04/04 12:54:00;;;;;;;4.63;2.03;;;10.70;54.80;;;;;;5072393;28;20075;-82